PHA weather

Pista Coahuila
San Luis Rio Colorado, Sonora, Mexico

Public forecast

Using degrees Celsius for public forecast. Weather courtesy of forecast.io.

Closest aviation weather report (METAR) to Pista Coahuila

Closest report is General Rodolfo Sánchez Taboada International Airport, 25.4 nm (47.1 km) NNW. Retrieved 2020/02/22 02:53 UTC (60 minutes ago):

MMML 220253Z 00000KT 10SM FEW050 SCT120 BKN200 22/03 A2997 RMK SLP149 52007 980 8/578

Closest aviation forecast (TAF) to Pista Coahuila

Forecast is more than 6 hours old.

Closest forecast is General Rodolfo Sánchez Taboada International Airport, 25.4 nm (47.1 km) NNW. Retrieved 2020/02/21 18:36 UTC (9 hours ago):

TAF MMML 211630Z 2118/2218 36005KT P6SM BKN220 BECMG 2120/2121 02012KT FM220200 18005KT P6SM SCT100 BKN220 FM220800 17010KT P6SM BKN080 BKN220 FM221400 15015KT P6SM SCT080 BKN220